27. September 2022

Uhrzeit Code Wetter Temp. Sichtweite Wolkendecke Wind METAR/SPECI
05:00
V
23 °C 10 km+ - 220° 220° 3 kt METAR AYNZ 261900Z 22003KT 9999 FEW050 23/21 Q1009=

26. September 2022

Uhrzeit Code Wetter Temp. Sichtweite Wolkendecke Wind METAR/SPECI
19:00
V
27 °C 10 km+ - 090° 090° 15 kt METAR AYNZ 260900Z 09015KT 9999 SCT060 27/21 Q1006
17:00
V
31 °C 10 km+ - 090° 090° 15 kt METAR AYNZ 260700Z 09015KT 9999 HZ SKC 31/21 Q1005
16:00
V
33 °C 10 km+ - 090° 090° 10 - 20 kt METAR AYNZ 260600Z 09010G20KT 9999 HZ SKC 33/22 Q1005
15:00
V
33 °C 10 km+ - 100° 100° 5 - 15 kt METAR AYNZ 260500Z 10005G15KT 9999 HZ SKC 33/21 Q1005 RMK
14:00
V
34 °C 10 km+ - 110° 110° 5 - 15 kt METAR AYNZ 260400Z 11005G15KT 9999 HZ SKC 34/21 Q1006 RMK
13:00
V
34 °C 10 km+ - 110° 110° 5 - 15 kt METAR AYNZ 260300Z 11005G15KT 9999 HZ FEW020 SCT060 34/21 Q1007
12:00
V
33 °C 10 km+ - 130° 130° 5 - 10 kt METAR AYNZ 260200Z 13005G10KT 9999 HZ SCT020 SCT040 33/21 Q1009
11:00
V
31 °C 10 km+ - 120° 120° 3 kt METAR AYNZ 260100Z 12003KT 9999 HZ SCT020 SCT040 31/22 Q1011
10:00
V
30 °C 10 km+ - 120° 120° 7 kt METAR AYNZ 260000Z 12007KT 9999 FUHZ FEW020 SCT040 30/22 Q1012
09:00
V
29 °C 10 km+ - Var Var 3 kt METAR AYNZ 252300Z VRB03KT 9999 FUHZ FEW015 SCT040 29/22 Q1012
08:00
V
27 °C 10 km+ - Var Var 3 kt METAR AYNZ 252200Z VRB03KT 9999 FUHZ FEW015 SCT040 27/23 Q1012
07:00
V
24 °C 10 km+ - Var Var 3 kt METAR AYNZ 252100Z VRB03KT 9999 FUHZ FEW015 SCT030 24/21 Q1011
06:00
V
24 °C 10 km+ - 230° 230° 3 kt METAR AYNZ 252000Z 23003KT 9999 FEW015 SCT030 24/21 Q1011=
05:00
V
24 °C 10 km+ - Var Var 3 kt METAR AYNZ 251900Z VRB03KT 9999 FEW015 SCT030 24/21 Q1010

25. September 2022

Uhrzeit Code Wetter Temp. Sichtweite Wolkendecke Wind METAR/SPECI
18:00
V
29 °C 10 km+ - 080° 080° 10 - 15 kt METAR AYNZ 250800Z 08010G15KT 9999 SCT040 29/21 Q1007
17:00
V
31 °C 10 km+ - 090° 090° 10 - 20 kt METAR AYNZ 250700Z 09010G20KT 9999 SCT040 31/21 Q1006
16:00
V
32 °C 10 km+ - 090° 090° 10 - 20 kt METAR AYNZ 250600Z 09010G20KT 9999 SCT040 32/21 Q1006
15:00
V
33 °C 10 km+ - 080° 080° 10 - 15 kt METAR AYNZ 250500Z 08010G15KT 9999 SCT040 33/22 Q1006
14:00
V
34 °C 10 km+ - 080° 080° 10 - 15 kt METAR AYNZ 250400Z 08010G15KT 9999 SCT040 34/21 Q1007
13:00
V
33 °C 10 km+ - 060° 060° 10 - 15 kt METAR AYNZ 250300Z 06010G15KT 9999 SCT040 33/21 Q1008
12:00
V
32 °C 10 km+ - 090° 090° 5 kt METAR AYNZ 250200Z 09005KT 9999 SCT035 32/21 Q1009
11:00
V
31 °C 10 km+ - 100° 100° 3 kt METAR AYNZ 250100Z 10003KT 9999 FEW030 SCT080 31/21 Q1011
10:00
V
28 °C 10 km+ 9.000 ft 290° 290° 3 kt METAR AYNZ 250000Z 29003KT 9999 FEW030 BKN090 28/22 Q1012
08:00
V
25 °C 10 km+ 9.000 ft 270° 270° 3 kt METAR AYNZ 242200Z 27003KT 9999 FEW030 BKN090 25/21 Q1012
07:00
V
24 °C 10 km+ - Var Var 3 kt METAR AYNZ 242100Z VRB03KT 9999 SCT030 24/21 Q1011
06:00
V
23 °C 10 km+ - Var Var 3 kt METAR AYNZ 242000Z VRB03KT 9999 SCT035 23/21 Q1010=
Ältere Daten

Wir und Dritte verfolgen dein Internetverhalten auf unserer Website mit Cookies. Wenn du fortfährst, gehen wir davon aus, dass du mit unserer Cookie-Richtlinie einverstanden bist. Mehr erfahren